sensor_id;sensor_type;location;lat;lon;timestamp;P1;durP1;ratioP1;P2;durP2;ratioP2
15921;SDS011;8060;50.948;3.146;2022-12-07T08:01:34;6.60;;;3.70;;
15921;SDS011;8060;50.948;3.146;2022-12-07T08:43:10;11.97;;;2.80;;
15921;SDS011;8060;50.948;3.146;2022-12-07T08:45:39;11.20;;;3.37;;
15921;SDS011;8060;50.948;3.146;2022-12-07T08:48:09;8.73;;;3.43;;
15921;SDS011;8060;50.948;3.146;2022-12-07T08:50:40;11.60;;;3.33;;
15921;SDS011;8060;50.948;3.146;2022-12-07T08:53:15;7.70;;;3.60;;
15921;SDS011;8060;50.948;3.146;2022-12-07T08:55:43;10.70;;;3.27;;
15921;SDS011;8060;50.948;3.146;2022-12-07T09:12:26;7.00;;;2.50;;
15921;SDS011;8060;50.948;3.146;2022-12-07T09:14:55;6.40;;;2.60;;
15921;SDS011;8060;50.948;3.146;2022-12-07T09:17:23;5.90;;;2.43;;
15921;SDS011;8060;50.948;3.146;2022-12-07T09:19:51;8.53;;;3.03;;
15921;SDS011;8060;50.948;3.146;2022-12-07T09:22:19;4.73;;;2.17;;
15921;SDS011;8060;50.948;3.146;2022-12-07T09:24:47;14.53;;;3.60;;
15921;SDS011;8060;50.948;3.146;2022-12-07T09:27:16;5.23;;;2.60;;
15921;SDS011;8060;50.948;3.146;2022-12-07T09:29:46;8.80;;;2.60;;
15921;SDS011;8060;50.948;3.146;2022-12-07T09:32:14;9.07;;;2.17;;
15921;SDS011;8060;50.948;3.146;2022-12-07T09:34:45;7.33;;;2.33;;
15921;SDS011;8060;50.948;3.146;2022-12-07T09:37:13;9.30;;;3.20;;
15921;SDS011;8060;50.948;3.146;2022-12-07T09:39:41;4.90;;;3.27;;
15921;SDS011;8060;50.948;3.146;2022-12-07T09:42:21;11.03;;;4.20;;
15921;SDS011;8060;50.948;3.146;2022-12-07T09:44:56;8.70;;;3.70;;
15921;SDS011;8060;50.948;3.146;2022-12-07T09:47:25;12.00;;;3.67;;
15921;SDS011;8060;50.948;3.146;2022-12-07T09:49:58;7.27;;;2.80;;
15921;SDS011;8060;50.948;3.146;2022-12-07T09:52:31;8.17;;;3.10;;
15921;SDS011;8060;50.948;3.146;2022-12-07T09:55:08;7.87;;;2.40;;
15921;SDS011;8060;50.948;3.146;2022-12-07T09:57:40;6.27;;;2.00;;
15921;SDS011;8060;50.948;3.146;2022-12-07T10:00:13;7.57;;;2.40;;
15921;SDS011;8060;50.948;3.146;2022-12-07T10:02:44;10.07;;;2.53;;
15921;SDS011;8060;50.948;3.146;2022-12-07T10:05:15;10.77;;;3.20;;
15921;SDS011;8060;50.948;3.146;2022-12-07T10:07:50;9.07;;;2.87;;
15921;SDS011;8060;50.948;3.146;2022-12-07T10:10:19;6.13;;;2.00;;
15921;SDS011;8060;50.948;3.146;2022-12-07T10:12:52;12.03;;;2.93;;
15921;SDS011;8060;50.948;3.146;2022-12-07T10:15:43;8.47;;;2.60;;
15921;SDS011;8060;50.948;3.146;2022-12-07T10:18:20;8.30;;;2.70;;
15921;SDS011;8060;50.948;3.146;2022-12-07T10:21:09;8.77;;;2.87;;
15921;SDS011;8060;50.948;3.146;2022-12-07T10:23:41;8.97;;;2.83;;
15921;SDS011;8060;50.948;3.146;2022-12-07T10:26:26;11.10;;;2.87;;
15921;SDS011;8060;50.948;3.146;2022-12-07T10:28:58;11.37;;;2.47;;
15921;SDS011;8060;50.948;3.146;2022-12-07T10:31:29;11.03;;;2.33;;
15921;SDS011;8060;50.948;3.146;2022-12-07T10:34:00;6.50;;;2.50;;
15921;SDS011;8060;50.948;3.146;2022-12-07T10:36:33;10.63;;;2.90;;
15921;SDS011;8060;50.948;3.146;2022-12-07T10:39:09;10.13;;;2.20;;
15921;SDS011;8060;50.948;3.146;2022-12-07T10:41:52;5.50;;;2.07;;
15921;SDS011;8060;50.948;3.146;2022-12-07T10:44:23;5.67;;;2.00;;
15921;SDS011;8060;50.948;3.146;2022-12-07T10:47:03;8.83;;;1.90;;
15921;SDS011;8060;50.948;3.146;2022-12-07T10:49:48;7.47;;;1.50;;
15921;SDS011;8060;50.948;3.146;2022-12-07T10:52:35;6.07;;;1.37;;
15921;SDS011;8060;50.948;3.146;2022-12-07T10:55:20;7.00;;;1.37;;
15921;SDS011;8060;50.948;3.146;2022-12-07T10:57:59;5.60;;;1.70;;
15921;SDS011;8060;50.948;3.146;2022-12-07T11:00:43;7.77;;;2.13;;
15921;SDS011;8060;50.948;3.146;2022-12-07T11:03:34;7.03;;;1.57;;
15921;SDS011;8060;50.948;3.146;2022-12-07T11:06:14;9.77;;;1.97;;
15921;SDS011;8060;50.948;3.146;2022-12-07T11:08:54;6.20;;;1.70;;
15921;SDS011;8060;50.948;3.146;2022-12-07T11:11:33;9.17;;;1.60;;
15921;SDS011;8060;50.948;3.146;2022-12-07T11:14:06;6.93;;;2.00;;
15921;SDS011;8060;50.948;3.146;2022-12-07T11:16:48;5.97;;;1.93;;
15921;SDS011;8060;50.948;3.146;2022-12-07T11:22:28;7.07;;;2.17;;
15921;SDS011;8060;50.948;3.146;2022-12-07T11:25:19;6.50;;;2.23;;
15921;SDS011;8060;50.948;3.146;2022-12-07T11:28:01;6.23;;;2.30;;
15921;SDS011;8060;50.948;3.146;2022-12-07T11:30:38;4.87;;;1.93;;
15921;SDS011;8060;50.948;3.146;2022-12-07T11:33:17;4.73;;;1.73;;
15921;SDS011;8060;50.948;3.146;2022-12-07T11:35:52;6.13;;;1.67;;
15921;SDS011;8060;50.948;3.146;2022-12-07T11:38:31;4.90;;;1.40;;
15921;SDS011;8060;50.948;3.146;2022-12-07T11:41:05;6.57;;;1.60;;
15921;SDS011;8060;50.948;3.146;2022-12-07T11:43:49;5.20;;;1.43;;
15921;SDS011;8060;50.948;3.146;2022-12-07T11:46:22;9.63;;;1.87;;
15921;SDS011;8060;50.948;3.146;2022-12-07T11:48:55;8.30;;;2.13;;
15921;SDS011;8060;50.948;3.146;2022-12-07T11:51:33;5.47;;;1.57;;
15921;SDS011;8060;50.948;3.146;2022-12-07T11:54:11;5.67;;;2.00;;
15921;SDS011;8060;50.948;3.146;2022-12-07T11:56:43;5.10;;;1.50;;
15921;SDS011;8060;50.948;3.146;2022-12-07T11:59:16;3.43;;;1.60;;
15921;SDS011;8060;50.948;3.146;2022-12-07T12:01:53;7.17;;;2.23;;
15921;SDS011;8060;50.948;3.146;2022-12-07T12:04:28;10.90;;;2.17;;
15921;SDS011;8060;50.948;3.146;2022-12-07T12:07:01;5.37;;;2.17;;
15921;SDS011;8060;50.948;3.146;2022-12-07T12:09:55;3.43;;;1.70;;
15921;SDS011;8060;50.948;3.146;2022-12-07T12:12:43;4.73;;;1.60;;
15921;SDS011;8060;50.948;3.146;2022-12-07T12:15:49;6.00;;;2.00;;
15921;SDS011;8060;50.948;3.146;2022-12-07T12:18:35;4.50;;;1.70;;
15921;SDS011;8060;50.948;3.146;2022-12-07T12:21:22;5.80;;;1.53;;
15921;SDS011;8060;50.948;3.146;2022-12-07T12:23:56;5.30;;;1.63;;
15921;SDS011;8060;50.948;3.146;2022-12-07T12:26:29;8.93;;;2.07;;
15921;SDS011;8060;50.948;3.146;2022-12-07T12:29:00;5.03;;;1.90;;
15921;SDS011;8060;50.948;3.146;2022-12-07T12:31:32;6.50;;;1.80;;
15921;SDS011;8060;50.948;3.146;2022-12-07T12:36:59;8.03;;;2.00;;
15921;SDS011;8060;50.948;3.146;2022-12-07T12:39:27;3.20;;;1.57;;
15921;SDS011;8060;50.948;3.146;2022-12-07T12:42:00;6.97;;;2.30;;
15921;SDS011;8060;50.948;3.146;2022-12-07T12:47:41;9.93;;;2.00;;
15921;SDS011;8060;50.948;3.146;2022-12-07T12:50:19;7.97;;;2.00;;
15921;SDS011;8060;50.948;3.146;2022-12-07T12:52:59;9.50;;;2.30;;
15921;SDS011;8060;50.948;3.146;2022-12-07T13:01:54;10.53;;;3.17;;
15921;SDS011;8060;50.948;3.146;2022-12-07T13:13:28;8.37;;;2.73;;
15921;SDS011;8060;50.948;3.146;2022-12-07T13:25:19;9.13;;;2.03;;
15921;SDS011;8060;50.948;3.146;2022-12-07T13:28:02;13.80;;;2.20;;
15921;SDS011;8060;50.948;3.146;2022-12-07T13:30:40;8.70;;;2.47;;
15921;SDS011;8060;50.948;3.146;2022-12-07T13:33:18;10.17;;;1.63;;
15921;SDS011;8060;50.948;3.146;2022-12-07T13:35:46;7.37;;;2.50;;
15921;SDS011;8060;50.948;3.146;2022-12-07T13:38:18;5.70;;;1.33;;
15921;SDS011;8060;50.948;3.146;2022-12-07T13:43:59;4.00;;;1.43;;
15921;SDS011;8060;50.948;3.146;2022-12-07T13:46:35;6.03;;;1.37;;
15921;SDS011;8060;50.948;3.146;2022-12-07T13:49:17;2.83;;;1.10;;
15921;SDS011;8060;50.948;3.146;2022-12-07T13:51:48;6.80;;;2.30;;
15921;SDS011;8060;50.948;3.146;2022-12-07T13:54:17;6.40;;;2.20;;
15921;SDS011;8060;50.948;3.146;2022-12-07T13:56:47;7.47;;;1.17;;
15921;SDS011;8060;50.948;3.146;2022-12-07T14:22:55;7.33;;;2.20;;
15921;SDS011;8060;50.948;3.146;2022-12-07T14:25:23;4.87;;;2.10;;
15921;SDS011;8060;50.948;3.146;2022-12-07T14:27:54;8.90;;;2.20;;
15921;SDS011;8060;50.948;3.146;2022-12-07T14:30:25;5.83;;;2.07;;
15921;SDS011;8060;50.948;3.146;2022-12-07T14:32:57;6.20;;;2.03;;
15921;SDS011;8060;50.948;3.146;2022-12-07T14:35:26;9.07;;;2.33;;
15921;SDS011;8060;50.948;3.146;2022-12-07T14:37:56;8.43;;;1.90;;
15921;SDS011;8060;50.948;3.146;2022-12-07T14:40:26;7.63;;;2.40;;
15921;SDS011;8060;50.948;3.146;2022-12-07T14:42:56;7.03;;;2.60;;
15921;SDS011;8060;50.948;3.146;2022-12-07T14:45:27;8.53;;;2.80;;
15921;SDS011;8060;50.948;3.146;2022-12-07T14:47:56;7.77;;;3.53;;
